Time;durP1;ratioP1;P1;durP2;ratioP2;P2;SDS_P1;SDS_P2;PMS_P1;PMS_P2;Temp;Humidity;BMP_temperature;BMP_pressure;BME280_temperature;BME280_humidity;BME280_pressure;Samples;Min_cycle;Max_cycle;Signal;HPM_P1;HPM_P2
2022/07/25 00:01:33;;;;;;;13.82;9.00;;;665.90;2073.60;;;;;;5094953;28;20031;-77
2022/07/25 00:03:59;;;;;;;13.32;9.18;;;665.90;2099.20;;;;;;5095591;28;20110;-79
2022/07/25 00:06:25;;;;;;;12.95;9.48;;;666.00;2124.80;;;;;;5095291;28;20055;-76
2022/07/25 00:08:51;;;;;;;13.70;9.05;;;665.90;2150.40;;;;;;5113457;28;20536;-77
2022/07/25 00:11:17;;;;;;;12.95;9.23;;;665.70;2150.40;;;;;;5113345;28;20028;-76
2022/07/25 00:13:43;;;;;;;11.75;9.30;;;665.60;2176.00;;;;;;5113628;28;20499;-76
2022/07/25 00:16:09;;;;;;;11.60;8.95;;;640.90;2176.00;;;;;;5113335;28;20031;-78
2022/07/25 00:18:34;;;;;;;11.45;8.80;;;640.70;2176.00;;;;;;5112677;28;20031;-77
2022/07/25 00:21:00;;;;;;;11.52;8.88;;;640.70;2150.40;;;;;;5112869;28;20051;-76
2022/07/25 00:23:26;;;;;;;9.73;8.40;;;640.70;2124.80;;;;;;5112992;28;20043;-75
2022/07/25 00:25:52;;;;;;;11.77;8.35;;;640.90;2124.80;;;;;;5113029;28;20488;-75
2022/07/25 00:28:18;;;;;;;15.18;8.60;;;640.90;2099.20;;;;;;5091351;28;20048;-76
2022/07/25 00:30:44;;;;;;;11.68;8.85;;;665.60;2124.80;;;;;;5092972;28;20016;-76
2022/07/25 00:33:09;;;;;;;12.23;8.65;;;640.90;2099.20;;;;;;5091330;28;20485;-75
2022/07/25 00:35:35;;;;;;;11.88;9.20;;;640.70;2099.20;;;;;;5091151;28;20024;-77
2022/07/25 00:38:01;;;;;;;14.18;8.77;;;640.60;2124.80;;;;;;5092223;28;20103;-76
2022/07/25 00:40:27;;;;;;;12.27;8.85;;;640.60;2150.40;;;;;;5090851;28;20573;-76
2022/07/25 00:42:52;;;;;;;12.80;8.63;;;640.60;2176.00;;;;;;5090956;28;20090;-76
2022/07/25 00:45:18;;;;;;;11.20;9.32;;;640.50;2201.60;;;;;;5092406;28;20022;-76
2022/07/25 00:47:44;;;;;;;12.70;9.05;;;640.40;2252.80;;;;;;5092775;28;20023;-75
2022/07/25 00:50:10;;;;;;;14.23;8.23;;;640.40;2252.80;;;;;;5091459;28;20028;-75
2022/07/25 00:52:35;;;;;;;13.18;9.75;;;640.40;2252.80;;;;;;5092754;28;20023;-75
2022/07/25 00:55:01;;;;;;;14.13;9.80;;;640.30;2252.80;;;;;;5091505;28;20389;-79
2022/07/25 00:57:27;;;;;;;12.63;9.63;;;640.30;2252.80;;;;;;5092875;28;20027;-75
2022/07/25 00:59:53;;;;;;;11.82;9.20;;;640.30;2252.80;;;;;;5092669;28;20064;-77
2022/07/25 01:02:18;;;;;;;9.32;8.25;;;640.20;2252.80;;;;;;5092883;28;20024;-76
2022/07/25 01:04:44;;;;;;;14.18;9.65;;;640.20;2252.80;;;;;;5091641;28;20020;-76
2022/07/25 01:07:10;;;;;;;12.55;9.90;;;640.10;2304.00;;;;;;5092444;28;20028;-75
2022/07/25 01:09:36;;;;;;;15.75;9.32;;;640.10;2304.00;;;;;;5092491;28;20461;-76
2022/07/25 01:12:02;;;;;;;11.35;8.85;;;640.10;2278.40;;;;;;5092804;28;20012;-76
2022/07/25 01:14:27;;;;;;;14.15;9.50;;;640.10;2278.40;;;;;;5092781;28;20024;-77
2022/07/25 01:16:53;;;;;;;13.63;10.23;;;615.30;2304.00;;;;;;5092995;28;20016;-77
2022/07/25 01:19:19;;;;;;;11.90;9.30;;;640.00;2304.00;;;;;;5091411;28;20123;-77
2022/07/25 01:21:45;;;;;;;11.20;9.77;;;640.10;2278.40;;;;;;5092602;28;20077;-80
2022/07/25 01:24:11;;;;;;;14.43;10.32;;;640.00;2304.00;;;;;;5092528;28;20051;-77
2022/07/25 01:26:37;;;;;;;13.48;9.57;;;640.10;2278.40;;;;;;5091345;28;20081;-78
2022/07/25 01:29:03;;;;;;;11.32;9.48;;;640.20;2252.80;;;;;;5105299;28;20058;-77
2022/07/25 01:31:29;;;;;;;12.20;10.05;;;640.10;2252.80;;;;;;5112911;28;20051;-79
2022/07/25 01:33:55;;;;;;;11.82;9.60;;;640.10;2252.80;;;;;;5113000;28;20044;-77
2022/07/25 01:36:21;;;;;;;12.25;10.18;;;640.20;2252.80;;;;;;5112916;28;20027;-77
2022/07/25 01:38:46;;;;;;;12.00;9.48;;;640.20;2227.20;;;;;;5112574;28;20473;-80
2022/07/25 01:41:12;;;;;;;14.55;9.07;;;640.20;2227.20;;;;;;5094482;28;20046;-77
2022/07/25 01:43:38;;;;;;;12.70;10.02;;;640.20;2201.60;;;;;;5112802;28;20069;-77
2022/07/25 01:46:04;;;;;;;12.63;9.65;;;640.20;2201.60;;;;;;5094590;28;20028;-80
2022/07/25 01:48:30;;;;;;;11.85;9.15;;;640.20;2201.60;;;;;;5093577;28;20039;-77
2022/07/25 01:50:55;;;;;;;12.75;9.65;;;640.30;2176.00;;;;;;5093981;28;20031;-76
2022/07/25 01:53:21;;;;;;;12.82;9.63;;;640.20;2176.00;;;;;;5094478;28;20024;-80
2022/07/25 01:55:47;;;;;;;11.05;9.55;;;640.10;2201.60;;;;;;5097389;28;20019;-77
2022/07/25 01:58:12;;;;;;;15.38;10.32;;;640.10;2227.20;;;;;;5116340;28;20023;-77
2022/07/25 02:00:38;;;;;;;14.52;9.73;;;615.30;2278.40;;;;;;5116076;28;20067;-76
2022/07/25 02:05:49;;;;;;;14.07;10.57;;;615.30;2304.00;;;;;;5114606;28;20035;-77
2022/07/25 02:08:14;;;;;;;13.10;10.05;;;615.20;2304.00;;;;;;5098077;28;20019;-79
2022/07/25 02:10:40;;;;;;;11.18;9.55;;;615.10;2329.60;;;;;;5113047;28;20099;-77
2022/07/25 02:13:06;;;;;;;14.38;9.52;;;615.00;2355.20;;;;;;5116033;28;20054;-78
2022/07/25 02:15:32;;;;;;;16.35;10.20;;;615.00;2355.20;;;;;;5116028;28;20012;-79
2022/07/25 02:17:57;;;;;;;15.23;10.15;;;615.00;2355.20;;;;;;5097341;28;20027;-77
2022/07/25 02:20:23;;;;;;;13.75;9.90;;;615.00;2304.00;;;;;;5115829;28;20038;-76
2022/07/25 02:22:49;;;;;;;13.00;9.25;;;615.10;2278.40;;;;;;5115795;28;20357;-78
2022/07/25 02:25:15;;;;;;;13.38;10.32;;;615.10;2278.40;;;;;;5115622;28;20403;-77
2022/07/25 02:27:40;;;;;;;15.48;9.93;;;615.10;2278.40;;;;;;5115516;28;20019;-76
2022/07/25 02:30:07;;;;;;;14.77;9.90;;;614.90;2304.00;;;;;;5097598;28;20069;-77
2022/07/25 02:32:32;;;;;;;10.88;9.73;;;614.90;2329.60;;;;;;5115586;28;20016;-77
2022/07/25 02:34:58;;;;;;;11.02;9.40;;;614.90;2304.00;;;;;;5115382;28;20453;-77
2022/07/25 02:37:24;;;;;;;16.35;10.27;;;614.80;2329.60;;;;;;5096707;28;20036;-78
2022/07/25 02:39:50;;;;;;;20.33;9.88;;;614.80;2355.20;;;;;;5115216;28;20035;-77
2022/07/25 02:42:15;;;;;;;14.32;10.85;;;614.80;2355.20;;;;;;5097062;28;20023;-79
2022/07/25 02:44:41;;;;;;;11.73;10.52;;;614.80;2329.60;;;;;;5115572;28;20018;-77
2022/07/25 02:47:07;;;;;;;12.40;10.20;;;614.70;2380.80;;;;;;5097009;28;20023;-76
2022/07/25 02:49:32;;;;;;;12.43;10.40;;;614.60;2406.40;;;;;;5115411;28;20027;-80
2022/07/25 02:51:58;;;;;;;16.15;10.23;;;614.60;2380.80;;;;;;5097162;28;20019;-77
2022/07/25 02:54:24;;;;;;;14.30;10.07;;;614.60;2406.40;;;;;;5096939;28;20080;-77
2022/07/25 02:56:49;;;;;;;11.73;9.90;;;614.50;2432.00;;;;;;5096772;28;20016;-80
2022/07/25 02:59:15;;;;;;;12.63;10.70;;;614.70;2380.80;;;;;;5115092;28;20063;-77
2022/07/25 03:01:41;;;;;;;13.07;9.25;;;614.70;2380.80;;;;;;5115050;28;20027;-78
2022/07/25 03:04:07;;;;;;;11.95;9.20;;;614.80;2380.80;;;;;;5115101;28;20030;-79
2022/07/25 03:06:32;;;;;;;14.40;10.40;;;614.80;2355.20;;;;;;5114580;28;20024;-78
2022/07/25 03:08:58;;;;;;;15.77;9.82;;;614.80;2329.60;;;;;;5096633;28;20477;-77
2022/07/25 03:11:24;;;;;;;12.32;10.02;;;614.80;2304.00;;;;;;5093757;28;20390;-78
2022/07/25 03:13:49;;;;;;;16.80;10.43;;;614.80;2252.80;;;;;;5095914;28;20036;-77
2022/07/25 03:16:15;;;;;;;14.35;10.50;;;614.80;2201.60;;;;;;5114765;28;20031;-78
2022/07/25 03:18:41;;;;;;;14.15;10.13;;;614.80;2201.60;;;;;;5096473;28;20027;-77
2022/07/25 03:21:07;;;;;;;15.90;10.18;;;614.80;2201.60;;;;;;5114702;28;20176;-77
2022/07/25 03:23:32;;;;;;;14.23;9.10;;;614.60;2201.60;;;;;;5114609;28;20524;-77
2022/07/25 03:25:58;;;;;;;13.88;9.60;;;614.50;2201.60;;;;;;5096333;28;20583;-76
2022/07/25 03:28:24;;;;;;;13.40;9.32;;;614.50;2201.60;;;;;;5111509;28;20517;-78
2022/07/25 03:30:50;;;;;;;16.40;9.57;;;614.60;2176.00;;;;;;5096255;28;20030;-77
2022/07/25 03:33:16;;;;;;;14.07;9.60;;;614.60;2176.00;;;;;;5096231;28;20030;-77
2022/07/25 03:35:44;;;;;;;13.77;10.07;;;614.60;2176.00;;;;;;5096240;28;20023;-77
2022/07/25 03:38:09;;;;;;;14.35;9.40;;;614.60;2150.40;;;;;;5095458;28;20086;-77
2022/07/25 03:40:36;;;;;;;12.05;10.18;;;614.50;2150.40;;;;;;5114373;28;20031;-78
2022/07/25 03:43:02;;;;;;;12.95;9.15;;;614.60;2150.40;;;;;;5113952;28;20011;-77
2022/07/25 03:45:27;;;;;;;12.15;9.45;;;614.50;2176.00;;;;;;5114226;28;20098;-77
2022/07/25 03:47:53;;;;;;;21.15;10.07;;;614.40;2176.00;;;;;;5114438;28;20381;-78
2022/07/25 03:50:19;;;;;;;14.55;9.55;;;614.50;2176.00;;;;;;5095882;28;20092;-77
2022/07/25 03:52:45;;;;;;;10.35;8.80;;;614.40;2201.60;;;;;;5114033;28;20505;-78
2022/07/25 03:55:10;;;;;;;15.65;10.30;;;614.50;2176.00;;;;;;5095321;28;20032;-77
2022/07/25 03:57:37;;;;;;;11.07;9.75;;;614.40;2201.60;;;;;;5113748;28;20019;-77
2022/07/25 04:00:05;;;;;;;10.93;9.70;;;614.50;2176.00;;;;;;5113957;28;20031;-79
2022/07/25 04:02:30;;;;;;;11.52;9.38;;;589.70;2176.00;;;;;;5114084;28;20031;-78
2022/07/25 04:04:56;;;;;;;15.65;10.32;;;614.40;2176.00;;;;;;5095746;28;20015;-78
2022/07/25 04:07:22;;;;;;;15.75;10.50;;;589.70;2227.20;;;;;;5095362;28;20031;-78
2022/07/25 04:09:48;;;;;;;12.73;9.48;;;589.70;2227.20;;;;;;5095789;28;20469;-78
2022/07/25 04:12:14;;;;;;;11.35;9.65;;;589.40;2278.40;;;;;;5095512;28;20031;-76
2022/07/25 04:14:39;;;;;;;13.60;9.57;;;589.40;2252.80;;;;;;5095641;28;20461;-80
2022/07/25 04:17:05;;;;;;;16.05;9.35;;;589.00;2304.00;;;;;;5095085;28;20016;-77
2022/07/25 04:19:31;;;;;;;14.48;9.18;;;589.10;2304.00;;;;;;5113630;28;20031;-77
2022/07/25 04:21:56;;;;;;;16.38;9.73;;;589.30;2227.20;;;;;;5095455;28;20541;-81
2022/07/25 04:24:22;;;;;;;11.80;9.65;;;589.30;2252.80;;;;;;5113677;28;20488;-78
2022/07/25 04:26:48;;;;;;;15.35;10.32;;;589.30;2252.80;;;;;;5095322;28;20068;-78
2022/07/25 04:29:14;;;;;;;15.75;10.57;;;589.30;2252.80;;;;;;5090866;28;20040;-80
2022/07/25 04:31:39;;;;;;;11.20;9.32;;;589.30;2278.40;;;;;;5093260;28;20027;-77
2022/07/25 04:34:05;;;;;;;10.88;9.35;;;589.40;2252.80;;;;;;5092936;28;20514;-76
2022/07/25 04:36:31;;;;;;;14.13;9.65;;;589.50;2227.20;;;;;;5093097;28;20025;-79
2022/07/25 04:38:57;;;;;;;14.55;11.02;;;589.70;2201.60;;;;;;5092708;28;20056;-76
2022/07/25 04:41:22;;;;;;;22.10;13.13;;;589.60;2201.60;;;;;;5092828;28;20529;-75
2022/07/25 04:43:48;;;;;;;20.52;15.77;;;589.70;2176.00;;;;;;5092850;28;20103;-79
2022/07/25 04:46:20;;;;;;;20.50;16.52;;;589.70;2176.00;;;;;;5091612;28;20551;-80
2022/07/25 04:48:46;;;;;;;22.98;17.67;;;589.70;2150.40;;;;;;5092842;28;20016;-77
2022/07/25 04:51:12;;;;;;;26.20;19.27;;;589.70;2176.00;;;;;;5092972;28;20053;-77
2022/07/25 04:53:38;;;;;;;21.77;16.90;;;614.40;2124.80;;;;;;5092867;28;20358;-74
2022/07/25 04:56:05;;;;;;;19.50;15.50;;;589.70;2124.80;;;;;;5092874;28;20032;-74
2022/07/25 04:58:31;;;;;;;20.38;13.65;;;614.40;2150.40;;;;;;5092479;28;20024;-76
2022/07/25 05:00:57;;;;;;;17.77;13.68;;;614.40;2150.40;;;;;;5092804;28;20465;-74
2022/07/25 05:03:23;;;;;;;18.02;13.68;;;614.60;2124.80;;;;;;5092697;28;20020;-79
2022/07/25 05:05:50;;;;;;;20.42;13.07;;;614.60;2099.20;;;;;;5090264;28;20028;-79
2022/07/25 05:08:15;;;;;;;23.40;12.23;;;614.60;2099.20;;;;;;5092762;28;20074;-76
2022/07/25 05:10:41;;;;;;;14.23;10.02;;;614.60;2073.60;;;;;;5092656;28;20032;-75
2022/07/25 05:13:08;;;;;;;13.52;10.93;;;614.60;2099.20;;;;;;5092408;28;20461;-73
2022/07/25 05:15:34;;;;;;;12.77;11.00;;;614.60;2099.20;;;;;;5092504;28;20025;-74
2022/07/25 05:18:00;;;;;;;13.68;10.32;;;614.50;2124.80;;;;;;5092742;28;20048;-75
2022/07/25 05:20:26;;;;;;;15.93;10.00;;;614.80;2099.20;;;;;;5092536;28;20433;-75
2022/07/25 05:22:52;;;;;;;14.35;10.18;;;614.80;2073.60;;;;;;5092549;28;20025;-75
2022/07/25 05:25:18;;;;;;;15.57;10.45;;;614.80;2073.60;;;;;;5090924;28;20042;-75
2022/07/25 05:27:44;;;;;;;13.05;10.13;;;614.90;2073.60;;;;;;5093916;28;20020;-79
2022/07/25 05:30:11;;;;;;;13.48;8.93;;;615.00;2073.60;;;;;;5116802;28;20019;-73
2022/07/25 05:32:38;;;;;;;15.48;10.35;;;615.20;2048.00;;;;;;5117305;27;20020;-75
2022/07/25 05:35:06;;;;;;;18.77;10.02;;;615.20;2048.00;;;;;;5117289;28;20030;-74
2022/07/25 05:37:33;;;;;;;20.73;11.50;;;615.20;2073.60;;;;;;5132031;27;20112;-75
2022/07/25 05:39:59;;;;;;;14.57;11.10;;;615.20;2022.40;;;;;;5137588;27;20157;-80
2022/07/25 05:42:25;;;;;;;17.63;11.07;;;615.30;2022.40;;;;;;5130148;27;20099;-74
2022/07/25 05:44:51;;;;;;;13.57;10.60;;;640.10;1996.80;;;;;;5116946;28;20020;-74
2022/07/25 05:47:17;;;;;;;20.70;11.00;;;640.10;1996.80;;;;;;5121597;27;20493;-80
2022/07/25 05:49:42;;;;;;;16.88;11.38;;;640.20;1971.20;;;;;;5137530;27;20057;-75
2022/07/25 05:52:08;;;;;;;18.52;11.02;;;640.10;1996.80;;;;;;5120711;27;20032;-75
2022/07/25 05:54:34;;;;;;;15.25;10.38;;;615.30;2022.40;;;;;;5106588;27;20034;-75
2022/07/25 05:57:00;;;;;;;16.85;11.45;;;640.00;2022.40;;;;;;5137298;27;20031;-75
2022/07/25 05:59:26;;;;;;;22.77;12.10;;;640.10;2048.00;;;;;;5136936;27;20019;-83
2022/07/25 06:01:52;;;;;;;14.25;11.15;;;640.10;2048.00;;;;;;5137494;27;20480;-75
2022/07/25 06:04:18;;;;;;;18.00;11.55;;;640.20;2022.40;;;;;;5122670;27;20011;-75
2022/07/25 06:06:49;;;;;;;16.10;11.40;;;640.40;2048.00;;;;;;5135333;27;20027;-75
2022/07/25 06:09:20;;;;;;;21.90;11.00;;;640.40;2022.40;;;;;;5122778;27;20023;-81
2022/07/25 06:11:47;;;;;;;21.40;11.77;;;640.70;1971.20;;;;;;5137078;27;20379;-75
2022/07/25 06:14:13;;;;;;;15.95;11.55;;;640.90;1996.80;;;;;;5120062;27;20024;-83
2022/07/25 06:16:39;;;;;;;17.60;12.00;;;665.60;1971.20;;;;;;5116187;28;20072;-74
2022/07/25 06:19:05;;;;;;;19.20;10.50;;;665.70;1945.60;;;;;;5113153;28;20156;-81
2022/07/25 06:21:31;;;;;;;23.92;11.00;;;665.80;1971.20;;;;;;5116357;28;20047;-75
2022/07/25 06:23:57;;;;;;;19.67;11.48;;;666.00;1920.00;;;;;;5126695;27;20472;-75
2022/07/25 06:26:23;;;;;;;18.63;10.90;;;666.00;1920.00;;;;;;5136763;27;20084;-74
2022/07/25 06:28:50;;;;;;;19.23;10.98;;;666.20;1920.00;;;;;;5127948;27;20042;-75
2022/07/25 06:31:16;;;;;;;19.77;11.07;;;666.30;1894.40;;;;;;5129385;27;20362;-74
2022/07/25 06:33:42;;;;;;;20.75;12.23;;;666.40;1894.40;;;;;;5136615;27;20012;-82
2022/07/25 06:36:08;;;;;;;18.88;11.35;;;666.50;1868.80;;;;;;5125701;27;20031;-81
2022/07/25 06:38:33;;;;;;;19.70;11.63;;;691.20;1843.20;;;;;;5133575;27;20038;-75
2022/07/25 06:40:59;;;;;;;21.00;11.95;;;691.40;1843.20;;;;;;5135742;27;20031;-74
2022/07/25 06:43:25;;;;;;;18.50;11.40;;;691.40;1843.20;;;;;;5122113;27;20022;-83
2022/07/25 06:45:51;;;;;;;13.60;12.20;;;691.50;1817.60;;;;;;5136524;27;20034;-82
2022/07/25 06:48:17;;;;;;;21.60;11.73;;;691.60;1792.00;;;;;;5136718;27;20027;-74
2022/07/25 06:50:43;;;;;;;21.25;11.43;;;691.60;1792.00;;;;;;5131689;27;20047;-77
2022/07/25 06:53:09;;;;;;;20.90;11.30;;;691.80;1792.00;;;;;;5115446;28;21089;-76
2022/07/25 06:55:35;;;;;;;17.70;12.40;;;691.90;1766.40;;;;;;5112603;28;20015;-76
2022/07/25 06:58:01;;;;;;;18.88;11.60;;;691.90;1766.40;;;;;;5115530;28;20389;-75
2022/07/25 07:00:27;;;;;;;16.60;11.25;;;692.10;1766.40;;;;;;5120093;27;20039;-85
2022/07/25 07:03:00;;;;;;;17.63;11.65;;;716.80;1792.00;;;;;;5125438;27;20035;-79
2022/07/25 07:05:28;;;;;;;21.17;10.98;;;716.90;1766.40;;;;;;5133337;27;20019;-81
2022/07/25 07:07:54;;;;;;;16.00;11.50;;;716.90;1766.40;;;;;;5135763;27;20035;-75
2022/07/25 07:10:20;;;;;;;17.02;11.95;;;716.90;1740.80;;;;;;5121441;27;20020;-80
2022/07/25 07:12:47;;;;;;;15.70;11.73;;;716.90;1740.80;;;;;;5127663;27;20472;-76
2022/07/25 07:15:13;;;;;;;17.63;12.27;;;717.20;1715.20;;;;;;5129592;27;20019;-75
2022/07/25 07:17:39;;;;;;;20.38;12.32;;;717.30;1715.20;;;;;;5121443;27;20098;-75
2022/07/25 07:20:06;;;;;;;20.60;11.23;;;717.40;1715.20;;;;;;5117625;27;20118;-82
2022/07/25 07:22:42;;;;;;;20.30;12.73;;;717.70;1715.20;;;;;;5121295;27;20018;-82
2022/07/25 07:25:07;;;;;;;19.08;11.98;;;742.40;1740.80;;;;;;5123578;27;20023;-84
2022/07/25 07:27:33;;;;;;;18.55;13.63;;;742.50;1689.60;;;;;;5133388;27;20023;-75
2022/07/25 07:29:59;;;;;;;21.08;12.75;;;742.50;1664.00;;;;;;5121071;27;20032;-74
2022/07/25 07:32:24;;;;;;;21.02;13.15;;;742.60;1689.60;;;;;;5135650;27;20019;-74
2022/07/25 07:34:50;;;;;;;25.05;13.45;;;742.80;1664.00;;;;;;5120723;27;20035;-75
2022/07/25 07:37:16;;;;;;;18.00;12.85;;;742.80;1638.40;;;;;;5133815;27;20019;-83
2022/07/25 07:39:41;;;;;;;20.73;12.32;;;743.00;1664.00;;;;;;5135446;27;20042;-75
2022/07/25 07:42:07;;;;;;;17.80;13.38;;;743.10;1638.40;;;;;;5117271;27;20019;-83
2022/07/25 07:44:33;;;;;;;17.63;13.02;;;743.10;1638.40;;;;;;5114011;28;20023;-75
2022/07/25 07:47:01;;;;;;;19.92;13.32;;;743.20;1612.80;;;;;;5114425;28;20476;-79
2022/07/25 07:49:28;;;;;;;17.63;12.32;;;743.20;1612.80;;;;;;5114027;28;20020;-75
2022/07/25 07:51:54;;;;;;;21.77;13.52;;;768.00;1612.80;;;;;;5114036;28;20026;-76
2022/07/25 07:57:04;;;;;;;18.38;11.82;;;768.30;1587.20;;;;;;5118451;27;20033;-75
2022/07/25 07:59:29;;;;;;;18.52;11.98;;;768.40;1587.20;;;;;;5134851;27;20462;-83
2022/07/25 08:01:55;;;;;;;16.90;12.40;;;768.60;1561.60;;;;;;5135001;27;20449;-81
2022/07/25 08:04:21;;;;;;;20.73;12.23;;;768.60;1561.60;;;;;;5134789;27;20469;-77
2022/07/25 08:06:47;;;;;;;13.43;11.40;;;768.60;1561.60;;;;;;5116171;27;20099;-77
2022/07/25 08:09:13;;;;;;;13.25;10.90;;;768.80;1561.60;;;;;;5134788;27;20034;-78
2022/07/25 08:11:38;;;;;;;14.95;10.35;;;768.80;1536.00;;;;;;5121171;27;20024;-77
2022/07/25 08:14:05;;;;;;;17.08;11.38;;;793.60;1587.20;;;;;;5122815;27;20388;-81
2022/07/25 08:16:32;;;;;;;12.35;10.90;;;793.70;1561.60;;;;;;5130334;27;20046;-76
2022/07/25 08:18:58;;;;;;;14.60;10.63;;;793.80;1536.00;;;;;;5134509;27;20093;-78
2022/07/25 08:21:23;;;;;;;14.50;11.82;;;793.90;1510.40;;;;;;5124218;27;20475;-78
2022/07/25 08:23:49;;;;;;;13.93;11.00;;;793.90;1510.40;;;;;;5127024;27;20027;-77
2022/07/25 08:26:15;;;;;;;12.63;10.93;;;794.00;1510.40;;;;;;5082422;28;20058;-79
2022/07/25 08:28:41;;;;;;;14.32;11.70;;;794.00;1510.40;;;;;;5112465;28;20040;-75
2022/07/25 08:31:07;;;;;;;17.02;10.85;;;794.00;1484.80;;;;;;5125747;27;20027;-76
2022/07/25 08:33:34;;;;;;;14.80;11.80;;;793.90;1484.80;;;;;;5130410;27;20036;-77
2022/07/25 08:36:00;;;;;;;11.15;10.05;;;794.10;1510.40;;;;;;5120662;27;20045;-75
2022/07/25 08:38:28;;;;;;;13.98;11.57;;;794.20;1510.40;;;;;;5134152;27;20079;-75
2022/07/25 08:40:55;;;;;;;12.75;11.07;;;794.50;1484.80;;;;;;5133974;27;20385;-75
2022/07/25 08:43:21;;;;;;;13.50;11.23;;;794.20;1459.20;;;;;;5122556;28;20022;-75
2022/07/25 08:45:52;;;;;;;26.83;12.57;;;794.40;1484.80;;;;;;5131061;28;20094;-78
2022/07/25 08:48:22;;;;;;;14.48;11.63;;;794.40;1459.20;;;;;;5123966;28;20063;-79
2022/07/25 08:50:49;;;;;;;13.25;11.85;;;794.50;1459.20;;;;;;5130401;28;20098;-79
2022/07/25 08:53:17;;;;;;;16.88;10.52;;;819.20;1459.20;;;;;;5122369;28;20080;-75
2022/07/25 08:55:44;;;;;;;13.27;11.35;;;819.30;1459.20;;;;;;5110615;28;20095;-74
2022/07/25 08:58:11;;;;;;;13.60;11.43;;;819.30;1459.20;;;;;;5113089;28;20034;-78
2022/07/25 09:00:37;;;;;;;13.70;11.55;;;819.30;1459.20;;;;;;5112840;28;20047;-76
2022/07/25 09:03:07;;;;;;;17.15;12.18;;;819.40;1459.20;;;;;;5113659;28;20277;-79
2022/07/25 09:05:34;;;;;;;14.02;11.55;;;819.50;1459.20;;;;;;5117323;28;20020;-76
2022/07/25 09:08:15;;;;;;;15.65;11.73;;;819.40;1408.00;;;;;;5117365;28;20035;-81
2022/07/25 09:10:49;;;;;;;13.05;11.40;;;819.40;1433.60;;;;;;5137528;27;20023;-75
2022/07/25 09:13:16;;;;;;;12.25;10.45;;;819.50;1408.00;;;;;;5104671;27;20036;-81
2022/07/25 09:15:50;;;;;;;12.68;10.02;;;819.80;1382.40;;;;;;5137889;27;20495;-79
2022/07/25 09:18:21;;;;;;;13.18;10.27;;;819.90;1356.80;;;;;;5102055;28;20016;-77
2022/07/25 09:20:50;;;;;;;15.65;10.63;;;819.90;1356.80;;;;;;5127140;27;20031;-79
2022/07/25 09:23:32;;;;;;;22.75;10.57;;;819.90;1356.80;;;;;;5123152;27;20016;-77
2022/07/25 09:26:08;;;;;;;11.73;10.13;;;819.90;1305.60;;;;;;5137797;27;20020;-79
2022/07/25 09:28:45;;;;;;;15.02;10.30;;;819.90;1305.60;;;;;;5133068;27;20050;-77
2022/07/25 09:31:11;;;;;;;19.63;10.13;;;820.00;1305.60;;;;;;5129306;27;20023;-80
2022/07/25 09:33:47;;;;;;;13.75;10.13;;;820.00;1280.00;;;;;;5137473;27;20076;-81
2022/07/25 09:36:13;;;;;;;14.00;10.73;;;844.80;1305.60;;;;;;5119573;27;20016;-80
2022/07/25 09:38:39;;;;;;;14.63;9.57;;;844.90;1305.60;;;;;;5116530;28;20389;-81
2022/07/25 09:41:05;;;;;;;13.82;9.80;;;845.10;1331.20;;;;;;5103198;27;20059;-79
2022/07/25 09:43:37;;;;;;;13.57;9.60;;;845.40;1305.60;;;;;;5108806;28;20435;-81
2022/07/25 09:46:04;;;;;;;14.02;10.05;;;845.50;1305.60;;;;;;5134414;27;20487;-76
2022/07/25 09:48:31;;;;;;;12.43;8.88;;;845.60;1280.00;;;;;;5137290;27;20019;-78
2022/07/25 09:50:57;;;;;;;18.30;9.85;;;870.40;1254.40;;;;;;5137264;27;20019;-79
2022/07/25 09:53:24;;;;;;;11.93;10.02;;;870.50;1280.00;;;;;;5129433;27;20024;-77
2022/07/25 09:55:52;;;;;;;11.63;9.48;;;870.70;1228.80;;;;;;5130677;27;20018;-77
2022/07/25 09:58:19;;;;;;;10.63;8.55;;;870.70;1203.20;;;;;;5131039;27;20024;-76
2022/07/25 10:00:45;;;;;;;12.32;10.05;;;870.90;1177.60;;;;;;5129025;27;20107;-80
2022/07/25 10:03:17;;;;;;;11.60;9.68;;;870.90;1177.60;;;;;;5122535;27;20019;-78
2022/07/25 10:05:50;;;;;;;10.85;8.90;;;871.00;1203.20;;;;;;5125501;27;20020;-79
2022/07/25 10:08:17;;;;;;;10.77;8.70;;;871.10;1177.60;;;;;;5134937;27;20019;-77
2022/07/25 10:10:43;;;;;;;13.40;9.00;;;896.00;1152.00;;;;;;5136954;27;20476;-78
2022/07/25 10:13:14;;;;;;;13.25;8.32;;;896.20;1126.40;;;;;;5122427;27;20028;-76
2022/07/25 10:15:48;;;;;;;9.52;7.63;;;896.10;1100.80;;;;;;5125980;27;20015;-77
2022/07/25 10:18:17;;;;;;;16.15;7.22;;;896.00;1100.80;;;;;;5132867;27;20560;-77
2022/07/25 10:20:48;;;;;;;11.93;8.20;;;896.30;1075.20;;;;;;5104453;27;20118;-77
2022/07/25 10:23:31;;;;;;;9.68;7.93;;;896.30;1075.20;;;;;;5102931;28;20031;-78
2022/07/25 10:26:03;;;;;;;10.00;7.22;;;896.60;1075.20;;;;;;5112523;27;20081;-81
2022/07/25 10:28:38;;;;;;;9.95;8.57;;;896.70;1075.20;;;;;;5097384;28;20043;-84
2022/07/25 10:31:13;;;;;;;;;;;896.70;1075.20;;;;;;5098487;28;20027;-86
2022/07/25 10:33:41;;;;;;;11.30;8.25;;;896.90;1075.20;;;;;;5131380;27;19908;-84
2022/07/25 10:36:07;;;;;;;9.77;8.52;;;896.70;1075.20;;;;;;5109024;27;20027;-81
2022/07/25 10:38:33;;;;;;;9.63;8.57;;;896.90;1049.60;;;;;;5115383;27;20027;-79
2022/07/25 10:41:04;;;;;;;12.10;7.65;;;921.70;1075.20;;;;;;5078514;28;20040;-78
2022/07/25 10:43:36;;;;;;;7.88;7.10;;;896.90;1049.60;;;;;;5088847;28;20099;-83
2022/07/25 10:46:13;;;;;;;9.60;6.88;;;896.70;1049.60;;;;;;5106940;27;20016;-80
2022/07/25 10:48:40;;;;;;;10.35;7.30;;;921.80;1049.60;;;;;;5116051;27;20016;-80
2022/07/25 10:51:09;;;;;;;7.78;7.00;;;922.10;1024.00;;;;;;5092103;28;20028;-82
2022/07/25 10:53:38;;;;;;;6.55;5.78;;;922.30;1024.00;;;;;;5094042;28;20032;-82
2022/07/25 10:56:07;;;;;;;9.85;7.03;;;922.50;972.80;;;;;;5094588;28;20093;-82
2022/07/25 10:58:48;;;;;;;7.93;6.90;;;922.30;972.80;;;;;;5094959;28;20490;-81
2022/07/25 11:01:19;;;;;;;8.90;7.20;;;922.50;947.20;;;;;;5094092;28;20561;-80
2022/07/25 11:03:44;;;;;;;10.00;7.43;;;922.30;972.80;;;;;;5095245;28;20028;-81
2022/07/25 11:06:14;;;;;;;9.48;7.72;;;922.10;972.80;;;;;;5096701;28;20473;-86
2022/07/25 11:08:42;;;;;;;10.45;7.53;;;922.50;972.80;;;;;;5097472;28;20073;-85
2022/07/25 11:11:09;;;;;;;7.53;6.63;;;921.80;972.80;;;;;;5097370;28;20032;-88
2022/07/25 11:13:40;;;;;;;9.50;7.00;;;921.70;972.80;;;;;;5097991;28;20019;-84
2022/07/25 11:16:06;;;;;;;11.20;7.47;;;896.60;972.80;;;;;;5115497;28;20031;-84
2022/07/25 11:18:35;;;;;;;8.23;7.43;;;896.20;998.40;;;;;;5097098;28;20027;-88
2022/07/25 11:21:03;;;;;;;11.93;7.88;;;871.20;998.40;;;;;;5113506;28;20032;-85
2022/07/25 11:23:29;;;;;;;9.52;8.20;;;871.10;1024.00;;;;;;5097848;28;20114;-84
2022/07/25 11:26:11;;;;;;;8.77;6.88;;;896.50;998.40;;;;;;5096354;28;20113;-85
2022/07/25 11:28:43;;;;;;;10.30;8.15;;;896.30;998.40;;;;;;5097328;28;20048;-83
2022/07/25 11:31:14;;;;;;;11.45;7.25;;;896.10;1024.00;;;;;;5115124;28;20034;-85
2022/07/25 11:33:42;;;;;;;10.15;7.88;;;871.30;1049.60;;;;;;5115658;28;20039;-86
2022/07/25 11:36:09;;;;;;;9.32;7.47;;;871.20;1024.00;;;;;;5097173;28;20027;-85
2022/07/25 11:38:37;;;;;;;8.98;7.35;;;871.30;1049.60;;;;;;5096427;28;20027;-85
2022/07/25 11:41:04;;;;;;;8.88;7.20;;;896.50;1024.00;;;;;;5097133;28;20043;-84
2022/07/25 11:43:29;;;;;;;8.10;7.07;;;896.80;998.40;;;;;;5115464;28;20038;-85
2022/07/25 11:46:06;;;;;;;8.40;7.53;;;921.70;998.40;;;;;;5096143;28;20725;-87
2022/07/25 11:48:37;;;;;;;11.57;7.68;;;922.00;998.40;;;;;;5095252;28;20023;-86
2022/07/25 11:51:17;;;;;;;10.55;7.90;;;922.10;998.40;;;;;;5096144;28;20016;-80
2022/07/25 11:53:49;;;;;;;7.90;7.10;;;922.10;998.40;;;;;;5094653;28;20118;-83
2022/07/25 11:56:24;;;;;;;11.60;7.72;;;921.80;1024.00;;;;;;5095822;28;20059;-83
2022/07/25 11:59:00;;;;;;;8.77;7.88;;;922.00;998.40;;;;;;5094227;28;20028;-82
2022/07/25 12:01:34;;;;;;;9.23;7.05;;;922.40;998.40;;;;;;5092234;28;20064;-77
2022/07/25 12:04:19;;;;;;;13.15;8.05;;;922.50;972.80;;;;;;5113956;28;20031;-77
2022/07/25 12:06:47;;;;;;;8.75;7.53;;;922.50;972.80;;;;;;5113786;28;20023;-75
2022/07/25 12:09:20;;;;;;;8.90;7.93;;;922.40;972.80;;;;;;5113840;28;20028;-76
2022/07/25 12:11:47;;;;;;;10.65;7.55;;;947.20;972.80;;;;;;5113804;28;20051;-76